Time;durP1;ratioP1;P1;durP2;ratioP2;P2;SDS_P1;SDS_P2;PMS_P1;PMS_P2;Temp;Humidity;BMP_temperature;BMP_pressure;BME280_temperature;BME280_humidity;BME280_pressure;Samples;Min_cycle;Max_cycle;Signal;HPM_P1;HPM_P2
2022/04/25 00:00:30;;;;;;;35.23;32.73;;;11.10;91.50;;;;;;5095092;28;20522;-74
2022/04/25 00:02:58;;;;;;;32.80;30.50;;;11.10;91.30;;;;;;5095452;28;20583;-73
2022/04/25 00:05:26;;;;;;;33.17;30.87;;;11.10;91.10;;;;;;5095455;28;20453;-74
2022/04/25 00:07:53;;;;;;;34.77;31.87;;;11.10;91.20;;;;;;5095355;28;20952;-74
2022/04/25 00:10:20;;;;;;;34.80;32.30;;;11.10;91.20;;;;;;5094882;28;20454;-73
2022/04/25 00:12:47;;;;;;;33.60;31.30;;;11.10;91.30;;;;;;5095341;28;20448;-73
2022/04/25 00:15:13;;;;;;;33.77;31.33;;;11.10;91.30;;;;;;5095313;28;20457;-74
2022/04/25 00:17:40;;;;;;;33.43;30.97;;;11.20;91.30;;;;;;5095045;28;20934;-73
2022/04/25 00:20:10;;;;;;;34.73;32.30;;;11.10;91.20;;;;;;5094608;28;20450;-73
2022/04/25 00:22:38;;;;;;;34.13;31.60;;;11.20;91.20;;;;;;5094553;28;20480;-73
2022/04/25 00:25:06;;;;;;;35.97;33.47;;;11.20;91.00;;;;;;5095049;28;20476;-74
2022/04/25 00:27:33;;;;;;;35.53;32.90;;;11.20;90.70;;;;;;5094788;28;20969;-74
2022/04/25 00:30:00;;;;;;;36.33;33.73;;;11.10;90.20;;;;;;5094497;28;20815;-74
2022/04/25 00:32:27;;;;;;;36.93;34.13;;;11.10;90.70;;;;;;5094902;28;20516;-73
2022/04/25 00:34:54;;;;;;;35.60;33.00;;;11.10;90.70;;;;;;5095142;28;20462;-74
2022/04/25 00:37:21;;;;;;;37.53;34.70;;;11.10;90.80;;;;;;5094633;28;20460;-73
2022/04/25 00:39:49;;;;;;;36.77;34.07;;;11.10;90.60;;;;;;5094195;28;20483;-74
2022/04/25 00:42:16;;;;;;;35.47;33.07;;;11.10;90.70;;;;;;5094834;28;20456;-74
2022/04/25 00:44:43;;;;;;;37.03;34.20;;;11.10;90.70;;;;;;5094812;28;20476;-73
2022/04/25 00:47:10;;;;;;;37.60;34.80;;;11.10;90.80;;;;;;5094463;28;20973;-74
2022/04/25 00:49:37;;;;;;;36.87;34.20;;;11.20;90.70;;;;;;5094067;28;20540;-74
2022/04/25 00:52:05;;;;;;;35.90;33.30;;;11.10;90.40;;;;;;5094489;28;20454;-74
2022/04/25 00:54:33;;;;;;;39.80;36.80;;;11.10;90.30;;;;;;5094435;28;20561;-74
2022/04/25 00:57:02;;;;;;;38.63;35.77;;;11.10;90.10;;;;;;5094501;28;20881;-74
2022/04/25 00:59:29;;;;;;;40.47;37.37;;;11.00;89.70;;;;;;5093796;28;20544;-74
2022/04/25 01:01:56;;;;;;;40.60;37.60;;;11.00;89.50;;;;;;5094329;28;20450;-74
2022/04/25 01:04:24;;;;;;;41.47;38.27;;;10.90;90.20;;;;;;5094292;28;20568;-74
2022/04/25 01:06:50;;;;;;;42.50;39.20;;;10.80;90.00;;;;;;5094131;28;20485;-74
2022/04/25 01:09:17;;;;;;;40.27;37.17;;;10.80;90.20;;;;;;5093623;28;20450;-74
2022/04/25 01:11:44;;;;;;;41.40;38.27;;;10.80;90.20;;;;;;5094168;28;20922;-74
2022/04/25 01:14:14;;;;;;;41.50;38.30;;;10.80;90.30;;;;;;5094168;28;20461;-73
2022/04/25 01:16:41;;;;;;;41.50;38.30;;;10.70;90.60;;;;;;5094004;28;20489;-74
2022/04/25 01:19:09;;;;;;;43.07;39.77;;;10.70;90.60;;;;;;5093676;28;20798;-74
2022/04/25 01:21:42;;;;;;;42.37;39.07;;;10.70;90.60;;;;;;5093776;28;20454;-74
2022/04/25 01:29:40;;;;;;;41.67;38.67;;;10.50;91.20;;;;;;5093299;28;20571;-73
2022/04/25 01:32:08;;;;;;;43.53;40.37;;;10.40;90.50;;;;;;5093947;28;20541;-73
2022/04/25 01:34:37;;;;;;;41.07;38.07;;;10.40;90.90;;;;;;5093613;28;20468;-74
2022/04/25 01:37:06;;;;;;;40.73;37.53;;;10.40;91.00;;;;;;5093733;28;20806;-73
2022/04/25 01:39:36;;;;;;;43.53;40.23;;;10.50;90.20;;;;;;5093152;28;20510;-73
2022/04/25 01:42:03;;;;;;;42.33;38.93;;;10.60;89.80;;;;;;5093605;28;20449;-73
2022/04/25 01:44:30;;;;;;;44.47;41.07;;;10.60;89.90;;;;;;5093374;28;20511;-73
2022/04/25 01:46:57;;;;;;;45.60;42.10;;;10.60;89.60;;;;;;5093469;28;20450;-73
2022/04/25 01:49:24;;;;;;;43.53;40.13;;;10.70;89.00;;;;;;5093010;28;20545;-74
2022/04/25 01:51:51;;;;;;;44.40;41.00;;;10.70;88.60;;;;;;5093211;28;20964;-74
2022/04/25 01:54:24;;;;;;;43.53;40.23;;;10.70;87.90;;;;;;5093399;28;20457;-74
2022/04/25 01:56:52;;;;;;;43.67;40.37;;;10.70;88.20;;;;;;5093303;28;20465;-73
2022/04/25 01:59:19;;;;;;;44.17;40.77;;;10.60;88.50;;;;;;5092515;28;20464;-73
2022/04/25 02:01:46;;;;;;;45.87;42.20;;;10.60;88.90;;;;;;5093201;28;20453;-73
2022/04/25 02:04:13;;;;;;;45.30;41.53;;;10.60;89.00;;;;;;5092968;28;21052;-73
2022/04/25 02:06:40;;;;;;;43.27;39.90;;;10.60;89.20;;;;;;5093208;28;20450;-73
2022/04/25 02:09:07;;;;;;;47.40;43.60;;;10.50;89.50;;;;;;5092836;28;20453;-74
2022/04/25 02:11:34;;;;;;;46.30;42.57;;;10.60;89.10;;;;;;5093037;28;20454;-74
2022/04/25 02:14:04;;;;;;;46.90;43.30;;;10.60;88.60;;;;;;5092923;28;20538;-74
2022/04/25 02:16:31;;;;;;;48.07;44.13;;;10.60;88.40;;;;;;5093021;28;20528;-74
2022/04/25 02:18:58;;;;;;;45.70;42.10;;;10.60;88.50;;;;;;5092603;28;20540;-74
2022/04/25 02:21:25;;;;;;;45.03;41.53;;;10.60;88.40;;;;;;5091884;28;20520;-73
2022/04/25 02:23:52;;;;;;;46.80;43.07;;;10.50;88.30;;;;;;5092792;28;20509;-74
2022/04/25 02:26:19;;;;;;;44.57;41.27;;;10.50;88.50;;;;;;5092830;28;20461;-73
2022/04/25 02:28:46;;;;;;;45.33;41.73;;;10.50;88.30;;;;;;5092469;28;20484;-74
2022/04/25 02:31:15;;;;;;;45.80;42.27;;;10.50;88.50;;;;;;5092185;28;20452;-74
2022/04/25 02:33:42;;;;;;;46.10;42.40;;;10.40;88.80;;;;;;5092445;28;20564;-74
2022/04/25 02:36:09;;;;;;;44.90;41.40;;;10.50;88.50;;;;;;5092409;28;20463;-74
2022/04/25 02:38:37;;;;;;;45.63;42.03;;;10.50;88.80;;;;;;5092474;28;20966;-74
2022/04/25 02:41:08;;;;;;;46.07;42.47;;;10.40;89.00;;;;;;5092075;28;20449;-74
2022/04/25 02:43:37;;;;;;;45.37;41.73;;;10.40;89.10;;;;;;5092389;28;20478;-74
2022/04/25 02:46:06;;;;;;;47.80;44.10;;;10.50;88.90;;;;;;5092444;28;20497;-74
2022/04/25 02:48:35;;;;;;;45.07;41.47;;;10.50;88.90;;;;;;5092192;28;20449;-73
2022/04/25 02:51:04;;;;;;;46.53;42.80;;;10.40;89.00;;;;;;5091755;28;20454;-73
2022/04/25 02:53:31;;;;;;;45.40;41.63;;;10.40;89.30;;;;;;5092141;28;20556;-74
2022/04/25 02:55:59;;;;;;;46.60;42.80;;;10.40;89.60;;;;;;5092290;28;20450;-74
2022/04/25 02:58:26;;;;;;;46.03;42.43;;;10.30;90.10;;;;;;5092114;28;21046;-73
2022/04/25 03:00:55;;;;;;;45.70;41.67;;;10.30;90.80;;;;;;5091846;28;20449;-74
2022/04/25 03:03:23;;;;;;;45.20;41.43;;;10.20;91.50;;;;;;5091960;28;20847;-74
2022/04/25 03:05:52;;;;;;;45.17;41.37;;;10.20;91.70;;;;;;5092203;28;20457;-73
2022/04/25 03:08:22;;;;;;;46.93;43.13;;;10.20;92.00;;;;;;5092042;28;20461;-73
2022/04/25 03:10:51;;;;;;;45.87;42.17;;;10.20;92.10;;;;;;5091695;28;20448;-74
2022/04/25 03:13:19;;;;;;;45.57;41.97;;;10.10;92.30;;;;;;5092267;28;20473;-73
2022/04/25 03:15:47;;;;;;;46.13;42.53;;;10.10;92.70;;;;;;5092192;28;20457;-73
2022/04/25 03:18:16;;;;;;;44.53;41.10;;;10.00;92.50;;;;;;5091957;28;20804;-73
2022/04/25 03:20:44;;;;;;;45.97;42.27;;;10.00;92.20;;;;;;5091854;28;20788;-73
2022/04/25 03:23:14;;;;;;;46.07;42.47;;;9.90;91.90;;;;;;5091449;28;20485;-73
2022/04/25 03:25:42;;;;;;;45.90;42.10;;;9.90;91.60;;;;;;5091936;28;20507;-73
2022/04/25 03:28:09;;;;;;;47.00;43.30;;;9.80;91.50;;;;;;5091745;28;20462;-73
2022/04/25 03:30:36;;;;;;;50.08;46.17;;;9.80;91.50;;;;;;5091456;28;20459;-74
2022/04/25 03:33:03;;;;;;;50.95;47.03;;;9.70;91.90;;;;;;5095251;28;20351;-73
2022/04/25 03:35:30;;;;;;;47.37;43.57;;;9.70;92.00;;;;;;5096030;28;20191;-74
2022/04/25 03:37:58;;;;;;;47.87;43.97;;;9.60;92.50;;;;;;5095925;28;20465;-73
2022/04/25 03:40:27;;;;;;;47.03;43.10;;;9.50;93.10;;;;;;5095221;28;20456;-73
2022/04/25 03:42:55;;;;;;;50.88;46.67;;;9.40;93.50;;;;;;5095713;28;20196;-73
2022/04/25 03:45:22;;;;;;;50.10;45.90;;;9.40;93.70;;;;;;5095787;28;20233;-73
2022/04/25 03:47:50;;;;;;;48.70;44.70;;;9.40;93.60;;;;;;5095700;28;20752;-73
2022/04/25 03:50:17;;;;;;;46.27;42.30;;;9.40;93.60;;;;;;5095147;28;20195;-73
2022/04/25 03:52:46;;;;;;;49.55;45.40;;;9.30;93.80;;;;;;5095718;28;20452;-73
2022/04/25 03:57:57;;;;;;;47.70;43.50;;;9.30;93.80;;;;;;5061839;28;20991;-73
2022/04/25 04:00:24;;;;;;;50.38;46.22;;;9.30;93.70;;;;;;5094908;28;20446;-73
2022/04/25 04:02:51;;;;;;;46.90;43.10;;;9.30;93.80;;;;;;5095750;28;20204;-73
2022/04/25 04:05:18;;;;;;;49.88;45.88;;;9.30;93.90;;;;;;5095653;28;20229;-73
2022/04/25 04:07:46;;;;;;;51.83;47.53;;;9.30;93.70;;;;;;5095959;28;20196;-73
2022/04/25 04:10:13;;;;;;;50.08;45.78;;;9.20;93.70;;;;;;5094912;28;20200;-74
2022/04/25 04:12:40;;;;;;;49.58;45.38;;;9.20;94.10;;;;;;5095378;28;20283;-73
2022/04/25 04:15:09;;;;;;;49.22;45.03;;;9.20;94.00;;;;;;5095644;28;20199;-74
2022/04/25 04:17:36;;;;;;;48.58;44.28;;;9.20;94.10;;;;;;5095641;28;20206;-74
2022/04/25 04:20:04;;;;;;;50.22;45.92;;;9.20;93.90;;;;;;5094917;28;20263;-73
2022/04/25 04:22:32;;;;;;;47.92;43.97;;;9.30;93.80;;;;;;5094883;28;20656;-74
2022/04/25 04:25:03;;;;;;;49.47;45.47;;;9.20;94.00;;;;;;5095030;28;20277;-73
2022/04/25 04:27:31;;;;;;;47.67;43.92;;;9.20;94.00;;;;;;5095030;28;20213;-73
2022/04/25 04:29:59;;;;;;;49.38;45.22;;;9.20;94.10;;;;;;5094589;28;20207;-73
2022/04/25 04:32:29;;;;;;;48.10;44.17;;;9.20;94.20;;;;;;5095020;28;20225;-73
2022/04/25 04:34:57;;;;;;;49.95;45.70;;;9.20;94.00;;;;;;5094890;28;20219;-74
2022/04/25 04:37:25;;;;;;;50.60;46.03;;;9.30;94.00;;;;;;5094948;28;20208;-74
2022/04/25 04:40:27;;;;;;;48.35;44.35;;;9.30;93.80;;;;;;5094037;28;20198;-73
2022/04/25 04:42:39;;;;;;;49.15;44.97;;;9.30;93.60;;;;;;5093919;28;20199;-73
2022/04/25 04:45:06;;;;;;;49.60;45.25;;;9.50;93.20;;;;;;5094637;28;20724;-73
2022/04/25 04:47:35;;;;;;;51.22;46.92;;;9.50;93.10;;;;;;5094552;28;20203;-73
2022/04/25 04:50:02;;;;;;;50.78;46.58;;;9.50;93.80;;;;;;5094071;28;20199;-73
2022/04/25 04:52:29;;;;;;;48.83;44.60;;;9.50;94.20;;;;;;5094485;28;20664;-73
2022/04/25 04:54:56;;;;;;;47.60;43.70;;;9.70;94.80;;;;;;5094421;28;20809;-74
2022/04/25 04:57:22;;;;;;;48.97;45.17;;;9.80;94.70;;;;;;5094408;28;20935;-73
2022/04/25 04:59:50;;;;;;;46.07;42.40;;;9.90;93.50;;;;;;5093684;28;20485;-73
2022/04/25 05:02:16;;;;;;;47.23;43.50;;;9.90;93.10;;;;;;5094229;28;20935;-73
2022/04/25 05:04:45;;;;;;;48.37;44.50;;;9.90;92.50;;;;;;5094056;28;20881;-73
2022/04/25 05:07:12;;;;;;;47.27;43.57;;;9.90;91.90;;;;;;5094119;28;20453;-73
2022/04/25 05:09:40;;;;;;;50.30;46.40;;;9.80;91.90;;;;;;5093787;28;20454;-74
2022/04/25 05:12:09;;;;;;;48.17;44.10;;;9.80;92.20;;;;;;5094097;28;20961;-73
2022/04/25 05:14:36;;;;;;;49.40;45.50;;;9.90;92.40;;;;;;5093990;28;20557;-73
2022/04/25 05:17:03;;;;;;;49.70;45.60;;;9.90;92.60;;;;;;5093958;28;20573;-73
2022/04/25 05:19:30;;;;;;;46.93;42.87;;;10.00;92.50;;;;;;5093632;28;20552;-73
2022/04/25 05:21:59;;;;;;;47.33;43.53;;;10.20;92.00;;;;;;5093706;28;20884;-73
2022/04/25 05:24:26;;;;;;;46.63;42.80;;;10.30;91.50;;;;;;5093766;28;20888;-73
2022/04/25 05:26:53;;;;;;;49.20;45.23;;;10.30;91.00;;;;;;5093430;28;20489;-74
2022/04/25 05:29:20;;;;;;;49.53;45.27;;;10.30;90.70;;;;;;5093337;28;20532;-73
2022/04/25 05:31:49;;;;;;;49.97;46.13;;;10.40;90.50;;;;;;5093794;28;20465;-73
2022/04/25 05:34:16;;;;;;;48.30;44.43;;;10.30;90.70;;;;;;5093908;28;20820;-73
2022/04/25 05:36:43;;;;;;;49.50;45.23;;;10.50;90.60;;;;;;5093688;28;20452;-73
2022/04/25 05:39:11;;;;;;;47.80;44.00;;;10.50;90.10;;;;;;5093003;28;20939;-73
2022/04/25 05:41:40;;;;;;;46.57;42.90;;;10.50;90.20;;;;;;5093560;28;20463;-73
2022/04/25 05:44:10;;;;;;;48.67;44.80;;;10.60;90.20;;;;;;5093665;28;20485;-74
2022/04/25 05:46:37;;;;;;;46.70;43.00;;;10.90;89.50;;;;;;5093627;28;20454;-74
2022/04/25 05:52:02;;;;;;;47.83;43.83;;;11.00;88.80;;;;;;5093514;28;20437;-74
2022/04/25 05:54:31;;;;;;;47.80;43.90;;;11.20;88.90;;;;;;5092680;28;20508;-74
2022/04/25 05:56:58;;;;;;;48.93;45.03;;;11.50;88.00;;;;;;5093566;28;20454;-74
2022/04/25 05:59:25;;;;;;;49.73;45.73;;;11.70;87.10;;;;;;5092535;28;20572;-74
2022/04/25 06:01:54;;;;;;;48.67;44.87;;;11.70;87.00;;;;;;5093462;28;20485;-74
2022/04/25 06:04:22;;;;;;;47.20;43.33;;;11.90;86.50;;;;;;5093103;28;20526;-74
2022/04/25 06:06:49;;;;;;;47.07;43.40;;;12.10;85.50;;;;;;5093084;28;20456;-75
2022/04/25 06:09:17;;;;;;;50.00;46.00;;;12.50;84.60;;;;;;5092522;28;20454;-75
2022/04/25 06:11:46;;;;;;;43.00;39.70;;;12.80;83.60;;;;;;5093035;28;20449;-75
2022/04/25 06:14:13;;;;;;;45.20;41.80;;;13.00;82.10;;;;;;5093109;28;20557;-75
2022/04/25 06:16:40;;;;;;;42.50;39.30;;;12.80;81.40;;;;;;5093187;28;20456;-75
2022/04/25 06:19:07;;;;;;;45.57;42.17;;;12.70;81.60;;;;;;5092508;28;20544;-74
2022/04/25 06:21:34;;;;;;;43.23;40.03;;;12.90;81.30;;;;;;5092944;28;20457;-74
2022/04/25 06:24:00;;;;;;;43.53;40.33;;;13.00;80.30;;;;;;5093033;28;20549;-74
2022/04/25 06:26:30;;;;;;;43.80;40.47;;;13.00;79.90;;;;;;5092924;28;20469;-74
2022/04/25 06:28:58;;;;;;;43.93;40.77;;;13.20;79.80;;;;;;5092800;28;20540;-74
2022/04/25 06:31:25;;;;;;;41.63;38.67;;;13.50;78.30;;;;;;5092289;28;20460;-74
2022/04/25 06:33:52;;;;;;;46.20;43.00;;;13.60;78.10;;;;;;5092773;28;20559;-75
2022/04/25 06:36:19;;;;;;;41.73;38.73;;;13.60;78.40;;;;;;5092773;28;20939;-74
2022/04/25 06:38:45;;;;;;;43.80;40.43;;;13.90;76.70;;;;;;5092556;28;20461;-74
2022/04/25 06:41:14;;;;;;;44.00;40.90;;;13.90;76.20;;;;;;5092041;28;20863;-75
2022/04/25 06:43:41;;;;;;;42.97;39.83;;;13.90;75.80;;;;;;5092432;28;20470;-75
2022/04/25 06:46:09;;;;;;;45.33;41.87;;;13.90;76.00;;;;;;5092353;28;20484;-75
2022/04/25 06:48:36;;;;;;;43.30;39.90;;;14.00;76.00;;;;;;5092373;28;20639;-75
2022/04/25 06:51:03;;;;;;;42.70;39.50;;;13.80;76.20;;;;;;5091977;28;20456;-75
2022/04/25 06:53:30;;;;;;;42.53;39.43;;;13.90;76.30;;;;;;5092212;28;21300;-75
2022/04/25 06:55:57;;;;;;;41.87;38.77;;;14.20;75.50;;;;;;5092457;28;20452;-75
2022/04/25 06:58:26;;;;;;;45.53;42.17;;;14.50;74.40;;;;;;5092257;28;20457;-75
2022/04/25 07:00:53;;;;;;;44.20;40.77;;;14.70;74.60;;;;;;5091657;28;20460;-75
2022/04/25 07:03:22;;;;;;;44.97;41.67;;;14.90;73.70;;;;;;5092269;28;20975;-75
2022/04/25 07:05:52;;;;;;;42.63;39.63;;;14.80;73.30;;;;;;5092060;28;21049;-75
2022/04/25 07:08:20;;;;;;;44.17;41.07;;;14.80;72.80;;;;;;5092234;28;20452;-75
2022/04/25 07:10:46;;;;;;;43.40;40.30;;;14.70;72.10;;;;;;5091857;28;20938;-74
2022/04/25 07:13:14;;;;;;;42.73;39.63;;;14.60;72.60;;;;;;5091988;28;20465;-74
2022/04/25 07:15:40;;;;;;;43.87;40.60;;;14.60;73.00;;;;;;5092206;28;20453;-75
2022/04/25 07:18:07;;;;;;;43.57;40.40;;;14.60;73.70;;;;;;5092173;28;20524;-75
2022/04/25 07:20:36;;;;;;;39.97;37.20;;;14.70;73.50;;;;;;5091490;28;21021;-75
2022/04/25 07:28:50;;;;;;;42.93;39.80;;;15.10;72.00;;;;;;5091937;28;21020;-75
2022/04/25 07:31:18;;;;;;;40.60;37.60;;;15.50;70.40;;;;;;5091705;28;20807;-75
2022/04/25 07:33:45;;;;;;;42.43;39.40;;;15.70;69.20;;;;;;5091914;28;20480;-74
2022/04/25 07:36:15;;;;;;;40.37;37.57;;;15.60;68.50;;;;;;5091870;28;20453;-74
2022/04/25 07:38:42;;;;;;;41.23;38.43;;;15.70;68.30;;;;;;5091668;28;20464;-74
2022/04/25 07:41:09;;;;;;;40.67;37.97;;;16.20;67.90;;;;;;5091357;28;20931;-74
2022/04/25 07:43:36;;;;;;;40.33;37.63;;;16.40;66.80;;;;;;5091846;28;20865;-74
2022/04/25 07:46:03;;;;;;;42.20;39.30;;;16.50;66.00;;;;;;5091701;28;20509;-74
2022/04/25 07:48:30;;;;;;;40.10;37.30;;;16.40;66.40;;;;;;5091583;28;20819;-74
2022/04/25 07:50:57;;;;;;;40.30;37.53;;;16.40;65.30;;;;;;5091375;28;20461;-73
2022/04/25 07:53:25;;;;;;;42.80;40.00;;;16.30;66.10;;;;;;5091780;28;20496;-73
2022/04/25 07:55:52;;;;;;;42.53;39.50;;;16.30;66.90;;;;;;5091708;28;20445;-73
2022/04/25 07:58:19;;;;;;;39.10;36.50;;;16.40;66.70;;;;;;5091560;28;20536;-73
2022/04/25 08:00:46;;;;;;;41.23;38.40;;;16.80;66.00;;;;;;5091197;28;20939;-73
2022/04/25 08:03:13;;;;;;;42.50;39.70;;;16.90;65.40;;;;;;5091490;28;21000;-73
2022/04/25 08:05:40;;;;;;;40.57;37.53;;;16.90;64.90;;;;;;5091547;28;20568;-74
2022/04/25 08:08:09;;;;;;;40.70;37.83;;;17.10;63.30;;;;;;5091467;28;21300;-73
2022/04/25 08:10:37;;;;;;;39.40;36.77;;;17.30;62.20;;;;;;5091239;28;20520;-74
2022/04/25 08:18:32;;;;;;;40.07;37.37;;;16.70;63.80;;;;;;5093982;28;20519;-73
2022/04/25 08:21:00;;;;;;;39.30;36.70;;;16.90;64.10;;;;;;5095242;28;20935;-73
2022/04/25 08:23:27;;;;;;;39.63;36.70;;;16.90;64.40;;;;;;5094926;28;20526;-76
2022/04/25 08:25:55;;;;;;;39.27;36.57;;;16.90;63.40;;;;;;5095296;28;20885;-73
2022/04/25 08:28:23;;;;;;;39.27;36.67;;;17.00;62.90;;;;;;5095243;28;20862;-74
2022/04/25 08:30:52;;;;;;;39.43;36.83;;;16.90;62.40;;;;;;5094816;28;20453;-74
2022/04/25 08:33:19;;;;;;;37.37;34.90;;;16.80;62.40;;;;;;5095179;28;20500;-74
2022/04/25 08:35:46;;;;;;;41.10;38.30;;;16.70;63.00;;;;;;5094842;28;20449;-74
2022/04/25 08:38:12;;;;;;;39.70;36.90;;;16.60;63.80;;;;;;5095236;28;20455;-75
2022/04/25 08:40:40;;;;;;;40.63;37.83;;;16.60;63.90;;;;;;5094338;28;20957;-75
2022/04/25 08:43:11;;;;;;;40.43;37.73;;;16.50;63.40;;;;;;5094964;28;20469;-74
2022/04/25 08:45:39;;;;;;;39.27;36.60;;;16.30;63.60;;;;;;5095233;28;20820;-74
2022/04/25 08:48:08;;;;;;;40.37;37.57;;;16.30;64.00;;;;;;5094754;28;20481;-74
2022/04/25 08:50:35;;;;;;;40.77;37.97;;;16.30;63.90;;;;;;5094112;28;20802;-75
2022/04/25 08:53:02;;;;;;;41.13;38.33;;;16.10;64.00;;;;;;5094897;28;20899;-74
2022/04/25 08:55:30;;;;;;;39.67;37.00;;;16.10;64.10;;;;;;5094433;28;20456;-74
2022/04/25 08:58:00;;;;;;;41.20;38.30;;;16.10;64.40;;;;;;5095261;28;20450;-74
2022/04/25 09:00:28;;;;;;;39.00;36.30;;;16.20;64.60;;;;;;5094319;28;20533;-74
2022/04/25 09:02:55;;;;;;;41.43;38.53;;;16.30;64.70;;;;;;5094636;28;20446;-74
2022/04/25 09:05:22;;;;;;;43.20;40.20;;;16.30;64.90;;;;;;5094476;28;21032;-74
2022/04/25 09:07:49;;;;;;;41.43;38.60;;;16.10;65.10;;;;;;5094282;28;20475;-74
2022/04/25 09:10:18;;;;;;;38.90;36.40;;;16.20;65.60;;;;;;5093603;28;20478;-74
2022/04/25 09:12:47;;;;;;;39.90;37.10;;;16.40;65.40;;;;;;5094203;28;20545;-75
2022/04/25 09:15:17;;;;;;;40.63;37.70;;;16.20;65.50;;;;;;5094071;28;20452;-75
2022/04/25 09:17:47;;;;;;;42.77;39.97;;;16.40;65.40;;;;;;5093988;28;20965;-75
2022/04/25 09:20:14;;;;;;;40.60;37.57;;;16.40;64.80;;;;;;5093564;28;20480;-75
2022/04/25 09:22:44;;;;;;;41.40;38.40;;;16.40;64.60;;;;;;5093812;28;20445;-75
2022/04/25 09:25:13;;;;;;;42.47;39.57;;;16.30;64.80;;;;;;5093892;28;20481;-74
2022/04/25 09:27:41;;;;;;;39.93;37.23;;;16.40;64.80;;;;;;5093706;28;20467;-74
2022/04/25 09:30:16;;;;;;;42.47;39.47;;;16.50;64.80;;;;;;5092182;28;20822;-74
2022/04/25 09:32:45;;;;;;;43.43;40.63;;;16.70;64.60;;;;;;5093742;28;20818;-74
2022/04/25 09:35:33;;;;;;;41.10;38.20;;;16.90;63.80;;;;;;5093673;28;20484;-74
2022/04/25 09:38:03;;;;;;;41.17;38.37;;;16.90;63.30;;;;;;5093908;28;20457;-75
2022/04/25 09:40:32;;;;;;;40.57;37.80;;;17.00;64.60;;;;;;5092951;28;20461;-75
2022/04/25 09:43:05;;;;;;;39.83;37.03;;;16.90;64.30;;;;;;5093691;28;20477;-74
2022/04/25 09:45:32;;;;;;;40.10;37.10;;;17.10;64.10;;;;;;5093410;28;20963;-75
2022/04/25 09:48:01;;;;;;;41.03;38.23;;;17.40;63.90;;;;;;5093450;28;20842;-75
2022/04/25 09:50:28;;;;;;;40.30;37.50;;;17.70;63.40;;;;;;5092907;28;20454;-75
2022/04/25 09:52:58;;;;;;;40.50;37.50;;;17.90;62.70;;;;;;5093522;28;20861;-75
2022/04/25 09:55:28;;;;;;;40.83;38.10;;;18.00;62.20;;;;;;5093272;28;20448;-75
2022/04/25 09:57:55;;;;;;;39.27;36.47;;;18.20;62.50;;;;;;5093355;28;20485;-75
2022/04/25 10:00:31;;;;;;;40.73;38.03;;;18.50;61.60;;;;;;5092493;28;20526;-75
2022/04/25 10:02:59;;;;;;;40.50;37.80;;;18.50;61.30;;;;;;5093152;28;21023;-75
2022/04/25 10:05:41;;;;;;;39.53;36.77;;;18.80;60.90;;;;;;5092966;28;20474;-75
2022/04/25 10:08:09;;;;;;;40.77;38.07;;;18.90;60.10;;;;;;5093059;28;20544;-74
2022/04/25 10:10:41;;;;;;;39.50;36.73;;;18.70;59.80;;;;;;5092287;28;20450;-74
2022/04/25 10:13:09;;;;;;;40.20;37.50;;;18.80;60.20;;;;;;5092943;28;20914;-74
2022/04/25 10:15:38;;;;;;;40.27;37.60;;;18.80;60.00;;;;;;5093143;28;20449;-74
2022/04/25 10:18:05;;;;;;;39.73;37.03;;;19.10;59.00;;;;;;5092976;28;20978;-75
2022/04/25 10:20:36;;;;;;;39.53;36.93;;;19.10;58.40;;;;;;5092298;28;20450;-75
2022/04/25 10:23:04;;;;;;;39.13;36.10;;;19.10;58.00;;;;;;5092420;28;20564;-75
2022/04/25 10:25:32;;;;;;;38.27;35.57;;;19.00;58.70;;;;;;5092541;28;20986;-75
2022/04/25 10:28:02;;;;;;;38.40;35.80;;;19.00;58.60;;;;;;5092564;28;20453;-75
2022/04/25 10:30:34;;;;;;;39.70;37.10;;;18.90;58.10;;;;;;5092134;28;20534;-75
2022/04/25 10:33:17;;;;;;;40.00;37.20;;;18.60;57.90;;;;;;5092754;28;20482;-75
2022/04/25 10:35:47;;;;;;;39.57;36.70;;;18.00;59.40;;;;;;5092618;28;20935;-75
2022/04/25 10:38:48;;;;;;;38.07;35.60;;;17.80;59.90;;;;;;5092435;28;20540;-75
2022/04/25 10:44:48;;;;;;;39.77;37.17;;;17.40;60.90;;;;;;5092718;28;20457;-75
2022/04/25 10:47:17;;;;;;;38.00;35.40;;;17.60;60.80;;;;;;5092315;28;20473;-75
2022/04/25 10:49:46;;;;;;;38.47;35.70;;;17.80;59.80;;;;;;5091658;28;20496;-75
2022/04/25 10:53:01;;;;;;;38.50;36.00;;;17.80;59.60;;;;;;5092300;28;21015;-75
2022/04/25 10:55:46;;;;;;;38.13;35.10;;;18.00;58.90;;;;;;5049833;28;20546;-75
2022/04/25 10:58:31;;;;;;;39.20;36.40;;;18.20;58.00;;;;;;5049817;28;20996;-75
2022/04/25 11:00:58;;;;;;;40.00;37.50;;;18.30;57.70;;;;;;5082563;28;20457;-75
2022/04/25 11:03:33;;;;;;;40.13;37.37;;;18.30;58.10;;;;;;5092163;28;20676;-75
2022/04/25 11:06:23;;;;;;;38.77;36.00;;;18.40;58.10;;;;;;5091972;28;20477;-75
2022/04/25 11:08:52;;;;;;;41.90;39.10;;;18.50;57.80;;;;;;5092048;28;20496;-75
2022/04/25 11:11:24;;;;;;;39.57;36.77;;;18.60;57.10;;;;;;5091932;28;20489;-75
2022/04/25 11:14:15;;;;;;;39.90;37.10;;;18.80;56.80;;;;;;5092069;28;20796;-75
2022/04/25 11:16:43;;;;;;;39.33;36.47;;;19.20;56.70;;;;;;5091985;28;20460;-75
2022/04/25 11:19:14;;;;;;;37.70;35.10;;;19.10;56.80;;;;;;5091387;28;20818;-75
2022/04/25 11:21:47;;;;;;;40.10;37.40;;;19.50;56.50;;;;;;5091919;28;20536;-76
2022/04/25 11:24:35;;;;;;;40.97;38.07;;;19.50;55.50;;;;;;5091791;28;20540;-75
2022/04/25 11:27:04;;;;;;;39.53;36.90;;;19.40;55.70;;;;;;5091541;28;20937;-75
2022/04/25 11:29:31;;;;;;;39.40;36.70;;;19.20;55.80;;;;;;5091385;28;20445;-75
2022/04/25 11:32:24;;;;;;;38.33;35.70;;;18.70;56.50;;;;;;5091996;28;20458;-75
2022/04/25 11:34:51;;;;;;;38.43;36.03;;;18.50;56.40;;;;;;5092081;28;20481;-75
2022/04/25 11:37:22;;;;;;;37.63;35.10;;;17.90;57.10;;;;;;5091981;28;20485;-75
2022/04/25 11:40:02;;;;;;;37.30;34.80;;;17.70;58.10;;;;;;5091255;28;20492;-75
2022/04/25 11:42:31;;;;;;;38.77;36.10;;;17.30;59.50;;;;;;5091902;28;20450;-75
2022/04/25 11:44:59;;;;;;;38.73;36.10;;;17.20;59.80;;;;;;5091827;28;20466;-75
2022/04/25 11:47:26;;;;;;;37.47;34.73;;;17.20;59.90;;;;;;5091627;28;20907;-75
2022/04/25 11:49:58;;;;;;;37.80;35.30;;;17.10;59.90;;;;;;5091259;28;20909;-75
2022/04/25 11:52:26;;;;;;;38.87;36.17;;;17.00;60.40;;;;;;5092130;28;20939;-75
2022/04/25 11:54:53;;;;;;;40.63;37.43;;;16.90;61.70;;;;;;5095643;28;20484;-75
2022/04/25 11:57:22;;;;;;;38.20;35.50;;;16.70;63.90;;;;;;5095590;28;20535;-75
2022/04/25 11:59:49;;;;;;;38.10;35.50;;;16.10;66.40;;;;;;5095069;28;20453;-75
2022/04/25 12:02:17;;;;;;;38.37;35.70;;;15.50;69.00;;;;;;5095641;28;20459;-75
2022/04/25 12:04:46;;;;;;;42.50;39.50;;;15.20;69.90;;;;;;5095601;28;20488;-75
2022/04/25 12:07:13;;;;;;;40.67;37.83;;;15.00;72.60;;;;;;5095409;28;20469;-75
2022/04/25 12:18:16;;;;;;;41.23;38.33;;;14.60;73.40;;;;;;5087901;28;20981;-75
2022/04/25 12:20:47;;;;;;;41.20;38.20;;;14.60;75.00;;;;;;5094628;28;20454;-75
2022/04/25 12:23:22;;;;;;;43.13;40.03;;;14.50;75.90;;;;;;5094672;28;20481;-75
2022/04/25 12:25:49;;;;;;;41.77;38.87;;;14.70;76.40;;;;;;5094699;28;20456;-75
2022/04/25 12:28:20;;;;;;;41.13;38.23;;;14.90;76.50;;;;;;5094897;28;20487;-75
2022/04/25 12:30:49;;;;;;;41.47;38.47;;;15.30;74.70;;;;;;5094559;28;20905;-75
2022/04/25 12:33:17;;;;;;;40.87;37.97;;;15.60;73.80;;;;;;5095161;28;20531;-75
2022/04/25 12:35:46;;;;;;;40.23;37.53;;;15.80;72.90;;;;;;5095115;28;20541;-75
2022/04/25 12:38:36;;;;;;;39.13;36.43;;;15.90;72.70;;;;;;5094902;28;20497;-75
2022/04/25 12:41:03;;;;;;;41.30;38.60;;;16.30;72.10;;;;;;5094514;28;20958;-75
2022/04/25 12:43:45;;;;;;;39.63;36.87;;;16.50;71.40;;;;;;5095136;28;20469;-75
2022/04/25 12:46:14;;;;;;;39.30;35.67;;;16.70;71.60;;;;;;5094926;28;20489;-75
2022/04/25 12:49:00;;;;;;;39.53;36.73;;;17.10;70.60;;;;;;5094809;28;20449;-75
2022/04/25 12:51:39;;;;;;;38.50;35.90;;;17.20;70.60;;;;;;5094375;28;20955;-75
2022/04/25 12:54:18;;;;;;;37.70;35.03;;;17.20;70.10;;;;;;5094620;28;20988;-75
2022/04/25 12:56:45;;;;;;;39.30;36.70;;;17.30;69.80;;;;;;5094732;28;20955;-75
2022/04/25 12:59:23;;;;;;;39.73;37.13;;;17.20;69.50;;;;;;5094027;28;20533;-75
2022/04/25 13:02:00;;;;;;;42.03;39.13;;;17.30;69.70;;;;;;5094711;28;20536;-75
2022/04/25 13:04:27;;;;;;;40.13;37.50;;;17.70;69.80;;;;;;5094229;28;20477;-75
2022/04/25 13:06:54;;;;;;;39.10;36.40;;;17.80;68.70;;;;;;5094438;28;20516;-75
2022/04/25 13:09:21;;;;;;;40.13;37.30;;;18.10;68.40;;;;;;5094054;28;20460;-75
2022/04/25 13:11:48;;;;;;;39.40;36.50;;;18.00;68.60;;;;;;5094141;28;20528;-75